Time;durP1;ratioP1;P1;durP2;ratioP2;P2;SDS_P1;SDS_P2;PMS_P1;PMS_P2;Temp;Humidity;BMP_temperature;BMP_pressure;BME280_temperature;BME280_humidity;BME280_pressure;Samples;Min_cycle;Max_cycle;Signal;HPM_P1;HPM_P2
2023/09/18 00:00:11;;;;;;;5.95;3.10;;;;;;;;;;2558323;23;20005;-92
2023/09/18 00:01:11;;;;;;;5.47;3.28;;;;;;;;;;2558316;23;20052;-91
2023/09/18 00:02:12;;;;;;;4.82;3.10;;;;;;;;;;2544529;23;20089;-90
2023/09/18 00:03:12;;;;;;;6.93;3.25;;;;;;;;;;2544446;23;20012;-91
2023/09/18 00:04:13;;;;;;;4.95;2.90;;;;;;;;;;2557085;23;20008;-92
2023/09/18 00:05:15;;;;;;;4.82;3.10;;;;;;;;;;2544369;23;20069;-92
2023/09/18 00:06:16;;;;;;;5.47;3.13;;;;;;;;;;2544634;23;20006;-92
2023/09/18 00:07:16;;;;;;;7.63;3.42;;;;;;;;;;2560960;23;20013;-92
2023/09/18 00:08:18;;;;;;;5.13;2.83;;;;;;;;;;2556625;23;20076;-91
2023/09/18 00:09:18;;;;;;;6.10;3.33;;;;;;;;;;2556365;23;20096;-92
2023/09/18 00:10:19;;;;;;;6.10;3.17;;;;;;;;;;2543916;23;20005;-92
2023/09/18 00:11:19;;;;;;;4.47;3.40;;;;;;;;;;2532023;23;20034;-91
2023/09/18 00:12:19;;;;;;;6.22;3.10;;;;;;;;;;2531993;23;20021;-91
2023/09/18 00:13:20;;;;;;;6.65;3.10;;;;;;;;;;2544218;23;20005;-92
2023/09/18 00:14:21;;;;;;;5.28;3.25;;;;;;;;;;2544138;23;20006;-91
2023/09/18 00:15:22;;;;;;;5.60;2.60;;;;;;;;;;2556599;23;20019;-91
2023/09/18 00:16:22;;;;;;;5.25;3.03;;;;;;;;;;2544301;23;20419;-91
2023/09/18 00:17:23;;;;;;;6.03;3.00;;;;;;;;;;2544109;23;20012;-91
2023/09/18 00:18:24;;;;;;;6.45;2.80;;;;;;;;;;2556679;23;20090;-91
2023/09/18 00:19:25;;;;;;;6.22;3.05;;;;;;;;;;2544227;23;20463;-91
2023/09/18 00:20:26;;;;;;;4.50;2.60;;;;;;;;;;2532052;23;20010;-92
2023/09/18 00:21:30;;;;;;;5.78;3.17;;;;;;;;;;2547839;23;20072;-92
2023/09/18 00:22:31;;;;;;;5.28;3.13;;;;;;;;;;2546988;23;19998;-91
2023/09/18 00:23:31;;;;;;;5.38;2.80;;;;;;;;;;2559616;23;20343;-92
2023/09/18 00:24:31;;;;;;;5.85;3.20;;;;;;;;;;2572792;23;19992;-91
2023/09/18 00:25:32;;;;;;;9.32;3.47;;;;;;;;;;2568931;23;20071;-92
2023/09/18 00:26:32;;;;;;;6.47;2.97;;;;;;;;;;2568941;23;19996;-91
2023/09/18 00:27:33;;;;;;;8.15;3.47;;;;;;;;;;2572029;23;20408;-92
2023/09/18 00:28:34;;;;;;;6.72;3.20;;;;;;;;;;2569025;23;20005;-92
2023/09/18 00:29:34;;;;;;;6.45;3.50;;;;;;;;;;2571830;23;20303;-92
2023/09/18 00:30:38;;;;;;;5.95;3.25;;;;;;;;;;2556769;23;20051;-91
2023/09/18 00:31:38;;;;;;;6.10;2.95;;;;;;;;;;2559715;23;20455;-91
2023/09/18 00:32:39;;;;;;;7.30;2.85;;;;;;;;;;2572392;23;20054;-91
2023/09/18 00:33:39;;;;;;;5.30;2.95;;;;;;;;;;2556467;23;20005;-91
2023/09/18 00:34:39;;;;;;;7.97;3.47;;;;;;;;;;2559071;23;20434;-91
2023/09/18 00:35:40;;;;;;;7.63;4.00;;;;;;;;;;2568651;23;20020;-91
2023/09/18 00:36:41;;;;;;;5.18;3.30;;;;;;;;;;2571342;23;20445;-91
2023/09/18 00:37:42;;;;;;;5.30;3.15;;;;;;;;;;2556376;23;20047;-91
2023/09/18 00:38:44;;;;;;;6.78;3.70;;;;;;;;;;2556721;23;20005;-92
2023/09/18 00:39:44;;;;;;;4.32;2.63;;;;;;;;;;2568566;23;20012;-91
2023/09/18 00:40:45;;;;;;;4.80;3.15;;;;;;;;;;2556447;23;20032;-91
2023/09/18 00:41:49;;;;;;;5.88;3.00;;;;;;;;;;2556494;23;20387;-91
2023/09/18 00:42:49;;;;;;;10.77;3.90;;;;;;;;;;2556492;23;20394;-91
2023/09/18 00:43:49;;;;;;;7.20;3.08;;;;;;;;;;2558046;23;20001;-92
2023/09/18 00:44:53;;;;;;;8.32;3.65;;;;;;;;;;2556370;23;20001;-92
2023/09/18 00:45:53;;;;;;;6.28;3.10;;;;;;;;;;2544687;23;20002;-90
2023/09/18 00:46:55;;;;;;;3.97;2.55;;;;;;;;;;2550867;23;20010;-91
2023/09/18 00:47:56;;;;;;;6.38;2.95;;;;;;;;;;2565499;23;20024;-91
2023/09/18 00:48:56;;;;;;;6.25;2.97;;;;;;;;;;2575885;23;20011;-89
2023/09/18 00:49:57;;;;;;;5.20;3.22;;;;;;;;;;2562709;23;20076;-89
2023/09/18 00:50:58;;;;;;;7.07;3.20;;;;;;;;;;2551060;23;20021;-91
2023/09/18 00:51:58;;;;;;;6.03;2.92;;;;;;;;;;2562820;23;20001;-91
2023/09/18 00:53:01;;;;;;;6.63;3.30;;;;;;;;;;2557270;23;20012;-92
2023/09/18 00:54:01;;;;;;;7.70;3.20;;;;;;;;;;2558029;23;20077;-91
2023/09/18 00:55:02;;;;;;;8.75;3.63;;;;;;;;;;2569043;23;20012;-91
2023/09/18 00:56:03;;;;;;;4.60;3.60;;;;;;;;;;2568860;23;20047;-89
2023/09/18 00:57:04;;;;;;;5.30;3.17;;;;;;;;;;2569750;23;20007;-91
2023/09/18 00:58:08;;;;;;;5.35;3.40;;;;;;;;;;2556496;23;20021;-91
2023/09/18 00:59:10;;;;;;;7.43;4.13;;;;;;;;;;2557611;23;20001;-91
2023/09/18 01:00:16;;;;;;;4.55;3.05;;;;;;;;;;2556639;23;20008;-91
2023/09/18 01:01:22;;;;;;;5.90;3.20;;;;;;;;;;2557471;23;20039;-91
2023/09/18 01:02:23;;;;;;;6.68;3.65;;;;;;;;;;2572655;23;20040;-91
2023/09/18 01:03:25;;;;;;;8.38;3.70;;;;;;;;;;2557134;23;20001;-92
2023/09/18 01:04:28;;;;;;;12.77;3.00;;;;;;;;;;2561011;23;20111;-91
2023/09/18 01:05:32;;;;;;;4.53;3.20;;;;;;;;;;2573280;23;19997;-91
2023/09/18 01:06:32;;;;;;;4.75;3.20;;;;;;;;;;2556784;23;20016;-91
2023/09/18 01:07:33;;;;;;;5.15;3.20;;;;;;;;;;2544489;23;20024;-90
2023/09/18 01:08:33;;;;;;;5.28;3.10;;;;;;;;;;2544449;23;20013;-91
2023/09/18 01:09:34;;;;;;;6.40;3.13;;;;;;;;;;2556472;23;20011;-91
2023/09/18 01:10:49;;;;;;;4.18;2.90;;;;;;;;;;2556245;23;20009;-91
2023/09/18 01:12:05;;;;;;;5.57;3.42;;;;;;;;;;2561025;23;20009;-91
2023/09/18 01:14:28;;;;;;;6.47;3.70;;;;;;;;;;2554873;22;20234;-90
2023/09/18 01:15:45;;;;;;;10.35;3.47;;;;;;;;;;2543905;23;20260;-92
2023/09/18 01:16:54;;;;;;;5.75;3.25;;;;;;;;;;2534879;23;20020;-91
2023/09/18 01:17:54;;;;;;;6.75;3.10;;;;;;;;;;2547283;23;20004;-92
2023/09/18 01:18:55;;;;;;;5.07;3.22;;;;;;;;;;2544266;23;20447;-90
2023/09/18 01:19:55;;;;;;;5.30;2.97;;;;;;;;;;2545596;23;20025;-92
2023/09/18 01:20:56;;;;;;;6.07;3.00;;;;;;;;;;2558478;23;20001;-90
2023/09/18 01:21:56;;;;;;;5.82;3.45;;;;;;;;;;2558785;23;19993;-90
2023/09/18 01:22:56;;;;;;;5.32;3.25;;;;;;;;;;2544214;23;20458;-90
2023/09/18 01:23:57;;;;;;;4.47;2.78;;;;;;;;;;2532209;23;20041;-90
2023/09/18 01:24:58;;;;;;;3.88;2.95;;;;;;;;;;2545601;23;20324;-90
2023/09/18 01:25:58;;;;;;;6.00;2.90;;;;;;;;;;2558425;23;20079;-92
2023/09/18 01:26:59;;;;;;;7.65;3.60;;;;;;;;;;2544161;23;20436;-92
2023/09/18 01:27:59;;;;;;;4.88;3.25;;;;;;;;;;2531748;23;20033;-92
2023/09/18 01:28:59;;;;;;;4.43;2.63;;;;;;;;;;2530888;23;20025;-91
2023/09/18 01:30:00;;;;;;;4.93;2.90;;;;;;;;;;2544068;23;20422;-91
2023/09/18 01:31:00;;;;;;;4.70;2.90;;;;;;;;;;2544986;23;20002;-92
2023/09/18 01:32:01;;;;;;;6.60;2.80;;;;;;;;;;2556406;23;20001;-91
2023/09/18 01:33:04;;;;;;;7.43;3.20;;;;;;;;;;2544024;23;20006;-92
2023/09/18 01:34:04;;;;;;;4.75;3.10;;;;;;;;;;2532282;23;20014;-92
2023/09/18 01:35:07;;;;;;;5.30;3.13;;;;;;;;;;2544963;23;20319;-92
2023/09/18 01:36:08;;;;;;;4.68;3.00;;;;;;;;;;2558126;23;20343;-91
2023/09/18 01:37:10;;;;;;;6.55;2.92;;;;;;;;;;2557511;23;20277;-92
2023/09/18 01:38:11;;;;;;;4.57;3.15;;;;;;;;;;2543767;23;20024;-92
2023/09/18 01:39:12;;;;;;;6.85;3.22;;;;;;;;;;2531908;23;20014;-92
2023/09/18 01:40:13;;;;;;;3.22;2.80;;;;;;;;;;2532070;23;20009;-92
2023/09/18 01:41:13;;;;;;;5.90;2.97;;;;;;;;;;2544229;23;20009;-91
2023/09/18 01:42:14;;;;;;;7.75;3.22;;;;;;;;;;2543856;23;20009;-92
2023/09/18 01:43:15;;;;;;;10.27;3.97;;;;;;;;;;2531720;23;20327;-92
2023/09/18 01:44:15;;;;;;;5.22;3.40;;;;;;;;;;2544081;23;20161;-92
2023/09/18 01:45:16;;;;;;;4.82;2.83;;;;;;;;;;2544028;23;20470;-92
2023/09/18 01:46:17;;;;;;;4.30;2.75;;;;;;;;;;2543889;23;20088;-91
2023/09/18 01:47:21;;;;;;;6.28;3.58;;;;;;;;;;2543813;23;20001;-92
2023/09/18 01:48:21;;;;;;;6.63;3.15;;;;;;;;;;2544074;23;19997;-91
2023/09/18 01:49:36;;;;;;;6.70;3.63;;;;;;;;;;2531719;23;20061;-91
2023/09/18 01:50:37;;;;;;;6.68;3.35;;;;;;;;;;2549673;23;20065;-92
2023/09/18 01:51:37;;;;;;;7.80;3.85;;;;;;;;;;2559634;23;20002;-91
2023/09/18 01:52:38;;;;;;;8.38;3.22;;;;;;;;;;2559708;23;20005;-91
2023/09/18 01:53:38;;;;;;;6.00;2.97;;;;;;;;;;2544032;23;20001;-92
2023/09/18 01:54:39;;;;;;;6.13;3.05;;;;;;;;;;2546683;23;20009;-92
2023/09/18 01:55:39;;;;;;;5.30;3.17;;;;;;;;;;2543941;23;20551;-91
2023/09/18 01:56:40;;;;;;;5.35;2.92;;;;;;;;;;2531874;23;20030;-92
2023/09/18 01:57:42;;;;;;;10.02;3.38;;;;;;;;;;2544161;23;20052;-92
2023/09/18 01:58:45;;;;;;;4.32;3.30;;;;;;;;;;2543875;23;20100;-92
2023/09/18 01:59:45;;;;;;;3.72;3.08;;;;;;;;;;2534453;23;20006;-92
2023/09/18 02:00:46;;;;;;;7.35;3.00;;;;;;;;;;2546208;23;20370;-91
2023/09/18 02:01:46;;;;;;;6.55;3.50;;;;;;;;;;2543869;23;20040;-92
2023/09/18 02:02:46;;;;;;;6.80;2.88;;;;;;;;;;2545991;23;20423;-92
2023/09/18 02:03:47;;;;;;;7.38;3.25;;;;;;;;;;2556275;23;20005;-92
2023/09/18 02:04:47;;;;;;;5.25;3.50;;;;;;;;;;2543817;23;20005;-92
2023/09/18 02:05:48;;;;;;;7.10;2.95;;;;;;;;;;2543852;23;20004;-90
2023/09/18 02:06:50;;;;;;;5.57;3.42;;;;;;;;;;2556157;23;20091;-90
2023/09/18 02:07:52;;;;;;;9.05;3.17;;;;;;;;;;2531839;23;20084;-90
2023/09/18 02:08:53;;;;;;;5.43;3.45;;;;;;;;;;2545916;23;20451;-91
2023/09/18 02:09:53;;;;;;;5.82;3.60;;;;;;;;;;2543937;23;20368;-91
2023/09/18 02:10:54;;;;;;;7.28;3.63;;;;;;;;;;2531677;23;20010;-91
2023/09/18 02:11:54;;;;;;;6.20;2.92;;;;;;;;;;2543508;23;20073;-91
2023/09/18 02:12:54;;;;;;;9.20;3.20;;;;;;;;;;2557689;23;20001;-91
2023/09/18 02:13:56;;;;;;;5.82;3.25;;;;;;;;;;2558443;23;20004;-91
2023/09/18 02:14:58;;;;;;;8.38;3.42;;;;;;;;;;2558390;23;20005;-91
2023/09/18 02:15:58;;;;;;;8.05;3.38;;;;;;;;;;2543700;23;20048;-91
2023/09/18 02:16:59;;;;;;;7.05;3.35;;;;;;;;;;2531604;23;20010;-92
2023/09/18 02:18:00;;;;;;;8.02;2.83;;;;;;;;;;2531811;23;20014;-91
2023/09/18 02:19:00;;;;;;;6.75;3.42;;;;;;;;;;2531928;23;20006;-90
2023/09/18 02:20:04;;;;;;;5.88;3.40;;;;;;;;;;2531621;23;20006;-92
2023/09/18 02:21:05;;;;;;;6.03;3.30;;;;;;;;;;2093168;23;10389089;-91
2023/09/18 02:22:05;;;;;;;9.77;4.13;;;;;;;;;;2544709;23;20351;-91
2023/09/18 02:23:05;;;;;;;4.32;3.25;;;;;;;;;;2557829;23;20005;-91
2023/09/18 02:24:06;;;;;;;7.18;3.25;;;;;;;;;;2544054;23;20519;-91
2023/09/18 02:25:08;;;;;;;5.97;3.45;;;;;;;;;;2544771;23;20004;-91
2023/09/18 02:26:09;;;;;;;8.43;3.50;;;;;;;;;;2557843;23;20005;-91
2023/09/18 02:27:11;;;;;;;7.72;3.70;;;;;;;;;;2557789;23;20347;-91
2023/09/18 02:28:11;;;;;;;10.05;4.15;;;;;;;;;;2557562;23;20001;-91
2023/09/18 02:29:14;;;;;;;8.25;3.13;;;;;;;;;;2557523;23;20029;-91
2023/09/18 02:30:14;;;;;;;7.00;3.30;;;;;;;;;;2543854;23;20494;-91
2023/09/18 02:31:15;;;;;;;6.10;3.42;;;;;;;;;;2531784;23;20013;-91
2023/09/18 02:32:15;;;;;;;7.65;3.10;;;;;;;;;;2544026;23;20356;-91
2023/09/18 02:33:16;;;;;;;6.15;3.40;;;;;;;;;;2544022;23;20033;-92
2023/09/18 02:34:18;;;;;;;5.43;3.15;;;;;;;;;;2532220;23;20084;-91
2023/09/18 02:35:18;;;;;;;14.52;3.30;;;;;;;;;;2548582;23;20373;-90
2023/09/18 02:36:18;;;;;;;11.40;3.40;;;;;;;;;;2544471;23;20068;-92
2023/09/18 02:37:19;;;;;;;13.35;3.53;;;;;;;;;;2544598;23;20440;-92
2023/09/18 02:38:19;;;;;;;6.05;3.20;;;;;;;;;;2544620;23;20043;-91
2023/09/18 02:39:20;;;;;;;7.25;3.55;;;;;;;;;;2532427;23;19994;-92
2023/09/18 02:40:20;;;;;;;6.38;3.30;;;;;;;;;;2544761;23;20017;-91
2023/09/18 02:41:20;;;;;;;6.47;3.15;;;;;;;;;;2560620;23;19989;-91
2023/09/18 02:42:21;;;;;;;7.82;3.65;;;;;;;;;;2544472;23;19997;-91
2023/09/18 02:43:21;;;;;;;7.68;3.30;;;;;;;;;;2548454;23;20000;-91
2023/09/18 02:44:22;;;;;;;7.45;4.00;;;;;;;;;;2544692;23;20535;-92
2023/09/18 02:45:22;;;;;;;8.90;3.20;;;;;;;;;;2532161;23;20042;-92
2023/09/18 02:46:23;;;;;;;6.35;3.53;;;;;;;;;;2548133;23;20021;-91
2023/09/18 02:47:23;;;;;;;5.85;3.50;;;;;;;;;;2544474;23;20084;-92
2023/09/18 02:48:24;;;;;;;4.05;3.15;;;;;;;;;;2544767;23;20005;-91
2023/09/18 02:49:24;;;;;;;4.85;3.47;;;;;;;;;;2544582;23;20424;-91
2023/09/18 02:50:24;;;;;;;6.50;3.10;;;;;;;;;;2548204;23;20017;-92
2023/09/18 02:51:25;;;;;;;5.20;3.40;;;;;;;;;;2556766;23;19993;-91
2023/09/18 02:52:33;;;;;;;5.50;3.31;;;;;;;;;;2443854;23;10002248;-91
2023/09/18 02:53:33;;;;;;;4.78;2.63;;;;;;;;;;2533613;23;20696;-91
2023/09/18 02:54:34;;;;;;;8.80;4.18;;;;;;;;;;2547377;23;20073;-92
2023/09/18 02:55:34;;;;;;;4.50;2.97;;;;;;;;;;2560563;23;19996;-91
2023/09/18 02:56:35;;;;;;;7.22;3.30;;;;;;;;;;2544547;23;20001;-92
2023/09/18 02:57:35;;;;;;;4.72;2.83;;;;;;;;;;2532385;23;20709;-91
2023/09/18 02:58:36;;;;;;;7.13;3.53;;;;;;;;;;2547419;23;20015;-91
2023/09/18 02:59:36;;;;;;;5.20;2.90;;;;;;;;;;2560655;23;20070;-91
2023/09/18 03:00:44;;;;;;;6.47;2.95;;;;;;;;;;2544456;23;20038;-92
2023/09/18 03:01:44;;;;;;;7.30;3.40;;;;;;;;;;2115360;23;10192749;-92
2023/09/18 03:02:45;;;;;;;5.05;3.45;;;;;;;;;;2559860;23;20274;-91
2023/09/18 03:03:45;;;;;;;7.57;3.50;;;;;;;;;;2544501;23;20088;-91
2023/09/18 03:04:45;;;;;;;5.63;3.03;;;;;;;;;;2532418;23;20455;-91
2023/09/18 03:05:46;;;;;;;5.30;3.08;;;;;;;;;;2532265;23;20020;-91
2023/09/18 03:06:46;;;;;;;4.07;3.08;;;;;;;;;;2544430;23;20498;-91
2023/09/18 03:07:47;;;;;;;5.88;3.30;;;;;;;;;;2544436;23;20013;-91
2023/09/18 03:08:51;;;;;;;7.50;3.45;;;;;;;;;;2544646;23;20009;-91
2023/09/18 03:09:51;;;;;;;5.43;3.10;;;;;;;;;;2544632;23;20096;-91
2023/09/18 03:10:51;;;;;;;5.70;3.35;;;;;;;;;;2532205;23;20006;-91
2023/09/18 03:11:52;;;;;;;13.88;4.07;;;;;;;;;;2532417;23;20014;-91
2023/09/18 03:12:52;;;;;;;8.95;3.65;;;;;;;;;;2532360;23;20021;-90
2023/09/18 03:13:53;;;;;;;5.85;3.25;;;;;;;;;;2103904;23;10413500;-90
2023/09/18 03:14:53;;;;;;;13.02;3.83;;;;;;;;;;2559739;23;20012;-91
2023/09/18 03:15:54;;;;;;;5.72;3.17;;;;;;;;;;2557067;23;20099;-91
2023/09/18 03:16:55;;;;;;;5.85;3.75;;;;;;;;;;2548469;23;20009;-91
2023/09/18 03:17:56;;;;;;;10.02;3.85;;;;;;;;;;2542740;23;20006;-91
2023/09/18 03:18:57;;;;;;;8.07;3.58;;;;;;;;;;2565846;23;20088;-90
2023/09/18 03:19:57;;;;;;;9.07;3.58;;;;;;;;;;2568494;23;20005;-92
2023/09/18 03:20:58;;;;;;;6.97;3.63;;;;;;;;;;2565285;23;20009;-91
2023/09/18 03:21:58;;;;;;;7.32;3.60;;;;;;;;;;2562417;23;20030;-92
2023/09/18 03:23:00;;;;;;;5.15;3.33;;;;;;;;;;2117914;23;10188489;-92
2023/09/18 03:24:01;;;;;;;8.35;3.30;;;;;;;;;;2550775;23;20493;-91
2023/09/18 03:25:02;;;;;;;10.07;3.88;;;;;;;;;;2545337;23;20001;-91
2023/09/18 03:26:02;;;;;;;7.75;3.70;;;;;;;;;;2562292;23;20008;-91
2023/09/18 03:27:05;;;;;;;6.93;3.70;;;;;;;;;;2562198;23;20029;-90
2023/09/18 03:28:05;;;;;;;6.80;3.60;;;;;;;;;;2563477;23;20486;-91
2023/09/18 03:29:06;;;;;;;6.97;3.30;;;;;;;;;;2575569;23;20055;-90
2023/09/18 03:30:07;;;;;;;7.80;3.90;;;;;;;;;;2574330;23;20355;-91
2023/09/18 03:31:07;;;;;;;7.30;3.83;;;;;;;;;;2574728;23;20020;-90
2023/09/18 03:32:11;;;;;;;5.65;3.40;;;;;;;;;;2574244;23;20008;-91
2023/09/18 03:33:12;;;;;;;6.63;3.47;;;;;;;;;;2561925;23;20095;-91
2023/09/18 03:34:13;;;;;;;7.10;3.70;;;;;;;;;;2548375;23;20009;-91
2023/09/18 03:35:20;;;;;;;6.20;3.40;;;;;;;;;;2556843;23;20309;-91
2023/09/18 03:36:23;;;;;;;9.18;3.80;;;;;;;;;;2556542;23;20009;-91
2023/09/18 03:37:24;;;;;;;5.90;3.83;;;;;;;;;;2544725;23;20001;-91
2023/09/18 03:38:24;;;;;;;7.22;3.45;;;;;;;;;;2556243;23;20075;-91
2023/09/18 03:39:25;;;;;;;7.95;3.35;;;;;;;;;;2556429;23;20004;-91
2023/09/18 03:40:25;;;;;;;5.53;3.83;;;;;;;;;;2544253;23;19993;-91
2023/09/18 03:41:26;;;;;;;6.85;3.75;;;;;;;;;;2556254;23;20071;-90
2023/09/18 03:42:26;;;;;;;5.03;3.40;;;;;;;;;;2556264;23;19992;-90
2023/09/18 03:43:26;;;;;;;5.93;3.05;;;;;;;;;;2544062;23;20085;-90
2023/09/18 03:44:27;;;;;;;4.82;3.15;;;;;;;;;;2559769;23;19993;-90
2023/09/18 03:45:27;;;;;;;7.40;3.60;;;;;;;;;;2572452;23;19985;-89
2023/09/18 03:46:28;;;;;;;6.47;3.10;;;;;;;;;;2572954;23;20019;-92
2023/09/18 03:47:28;;;;;;;9.15;3.95;;;;;;;;;;2568863;23;19996;-92
2023/09/18 03:48:35;;;;;;;5.55;4.05;;;;;;;;;;2556317;23;20016;-92
2023/09/18 03:49:35;;;;;;;8.35;4.38;;;;;;;;;;2544958;23;20072;-91
2023/09/18 03:50:36;;;;;;;5.60;3.58;;;;;;;;;;2543849;23;20024;-91
2023/09/18 03:51:36;;;;;;;6.65;3.42;;;;;;;;;;2544099;23;20105;-91
2023/09/18 03:52:38;;;;;;;6.72;3.33;;;;;;;;;;2558951;23;20059;-90
2023/09/18 03:53:39;;;;;;;9.35;3.65;;;;;;;;;;2556531;23;20485;-89
2023/09/18 03:54:39;;;;;;;6.93;3.30;;;;;;;;;;2556214;23;20005;-90
2023/09/18 03:55:39;;;;;;;6.32;3.88;;;;;;;;;;2571292;23;20011;-89
2023/09/18 03:56:40;;;;;;;6.68;3.67;;;;;;;;;;2568559;23;20087;-90
2023/09/18 03:57:42;;;;;;;5.68;3.50;;;;;;;;;;2571169;23;20478;-92
2023/09/18 03:58:44;;;;;;;5.63;3.72;;;;;;;;;;2568700;23;20536;-91
2023/09/18 03:59:45;;;;;;;5.88;3.55;;;;;;;;;;2556108;23;20005;-90
2023/09/18 04:00:45;;;;;;;4.18;3.65;;;;;;;;;;2543876;23;20006;-89
2023/09/18 04:01:46;;;;;;;6.32;3.65;;;;;;;;;;2543838;23;20029;-90
2023/09/18 04:02:46;;;;;;;7.05;3.40;;;;;;;;;;2556272;23;20362;-90
2023/09/18 04:03:46;;;;;;;5.70;3.40;;;;;;;;;;2556301;23;20443;-91
2023/09/18 04:04:47;;;;;;;6.53;3.30;;;;;;;;;;2558241;23;20366;-91
2023/09/18 04:05:57;;;;;;;7.05;3.42;;;;;;;;;;2535673;23;10278562;-91
2023/09/18 04:06:57;;;;;;;5.25;3.45;;;;;;;;;;2556383;23;20218;-91
2023/09/18 04:07:58;;;;;;;7.18;3.67;;;;;;;;;;2544059;23;20415;-91
2023/09/18 04:08:58;;;;;;;7.72;4.05;;;;;;;;;;2543855;23;20033;-90
2023/09/18 04:09:58;;;;;;;8.25;3.72;;;;;;;;;;2543777;23;20065;-90
2023/09/18 04:10:59;;;;;;;6.15;3.67;;;;;;;;;;2557282;23;20011;-92
2023/09/18 04:11:59;;;;;;;6.00;3.83;;;;;;;;;;2568683;23;20449;-91
2023/09/18 04:13:00;;;;;;;8.02;3.83;;;;;;;;;;2556382;23;20009;-91
2023/09/18 04:14:01;;;;;;;5.88;3.80;;;;;;;;;;2544027;23;20467;-91
2023/09/18 04:15:04;;;;;;;6.68;4.22;;;;;;;;;;2555989;23;20009;-91
2023/09/18 04:16:04;;;;;;;6.15;3.47;;;;;;;;;;2556407;23;20013;-92
2023/09/18 04:17:05;;;;;;;7.35;3.78;;;;;;;;;;2543825;23;20104;-91
2023/09/18 04:18:05;;;;;;;6.80;3.72;;;;;;;;;;2556314;23;20091;-92
2023/09/18 04:19:06;;;;;;;4.15;3.47;;;;;;;;;;2556532;23;20009;-91
2023/09/18 04:20:06;;;;;;;10.77;3.80;;;;;;;;;;2544253;23;20005;-91
2023/09/18 04:21:07;;;;;;;5.80;3.80;;;;;;;;;;2556141;23;20428;-91
2023/09/18 04:22:08;;;;;;;6.97;3.53;;;;;;;;;;2556388;23;20056;-92
2023/09/18 04:23:25;;;;;;;7.80;4.03;;;;;;;;;;2544166;23;20016;-91
2023/09/18 04:24:26;;;;;;;4.32;3.35;;;;;;;;;;2563434;23;20001;-92
2023/09/18 04:25:27;;;;;;;8.00;3.72;;;;;;;;;;2556157;23;20464;-92
2023/09/18 04:26:30;;;;;;;8.07;3.90;;;;;;;;;;2559328;23;20366;-91
2023/09/18 04:27:31;;;;;;;5.72;3.67;;;;;;;;;;2572436;23;20334;-92
2023/09/18 04:28:31;;;;;;;7.47;3.80;;;;;;;;;;2555953;23;19997;-91
2023/09/18 04:29:32;;;;;;;6.28;3.67;;;;;;;;;;2559093;23;19996;-92
2023/09/18 04:30:33;;;;;;;5.97;3.53;;;;;;;;;;2556100;23;20468;-91
2023/09/18 04:31:33;;;;;;;9.35;3.97;;;;;;;;;;2556089;23;20044;-91
2023/09/18 04:32:35;;;;;;;5.13;3.38;;;;;;;;;;2568350;23;20095;-92
2023/09/18 04:33:36;;;;;;;5.05;3.75;;;;;;;;;;2555854;23;19993;-91
2023/09/18 04:34:36;;;;;;;5.15;3.70;;;;;;;;;;2556177;23;20534;-91
2023/09/18 04:35:39;;;;;;;8.57;3.80;;;;;;;;;;2568521;23;20028;-90
2023/09/18 04:36:39;;;;;;;5.07;3.33;;;;;;;;;;2544808;23;20305;-90
2023/09/18 04:37:39;;;;;;;8.30;3.83;;;;;;;;;;2556965;23;20035;-89
2023/09/18 04:38:40;;;;;;;7.80;3.53;;;;;;;;;;2556389;23;20107;-90
2023/09/18 04:39:40;;;;;;;7.13;3.72;;;;;;;;;;2558726;23;20008;-91
2023/09/18 04:40:41;;;;;;;6.93;3.33;;;;;;;;;;2556169;23;20013;-91
2023/09/18 04:41:41;;;;;;;8.35;3.33;;;;;;;;;;2543824;23;20104;-90
2023/09/18 04:42:42;;;;;;;6.40;3.72;;;;;;;;;;2544565;23;20001;-90
2023/09/18 04:43:43;;;;;;;7.30;3.80;;;;;;;;;;2558879;23;20303;-89
2023/09/18 04:44:43;;;;;;;8.90;4.22;;;;;;;;;;2556105;23;20009;-91
2023/09/18 04:45:44;;;;;;;4.97;3.50;;;;;;;;;;2558534;23;20005;-92
2023/09/18 04:46:45;;;;;;;6.15;3.20;;;;;;;;;;2568299;23;20505;-91
2023/09/18 04:47:45;;;;;;;7.38;3.50;;;;;;;;;;2570689;23;20079;-91
2023/09/18 04:48:46;;;;;;;5.63;3.20;;;;;;;;;;2555995;23;20305;-92
2023/09/18 04:49:49;;;;;;;6.35;3.53;;;;;;;;;;2543604;23;20010;-90
2023/09/18 04:50:49;;;;;;;6.50;3.30;;;;;;;;;;2556228;23;20497;-92
2023/09/18 04:51:50;;;;;;;5.95;3.35;;;;;;;;;;2568204;23;20011;-91
2023/09/18 04:52:52;;;;;;;5.53;3.47;;;;;;;;;;2568349;23;20004;-92
2023/09/18 04:53:52;;;;;;;6.70;3.28;;;;;;;;;;2557719;23;20085;-92
2023/09/18 04:54:54;;;;;;;8.18;3.30;;;;;;;;;;2555640;23;20448;-93
2023/09/18 04:55:55;;;;;;;8.10;3.70;;;;;;;;;;2557643;23;20111;-92
2023/09/18 04:56:55;;;;;;;5.78;3.10;;;;;;;;;;2568415;23;20104;-92
2023/09/18 04:57:58;;;;;;;5.93;3.50;;;;;;;;;;2555762;23;20016;-92
2023/09/18 04:58:58;;;;;;;7.85;3.60;;;;;;;;;;2556356;23;20009;-92
2023/09/18 04:59:58;;;;;;;7.72;3.72;;;;;;;;;;2555848;23;20132;-91
2023/09/18 05:01:00;;;;;;;5.07;3.92;;;;;;;;;;2556108;23;20013;-91
2023/09/18 05:02:00;;;;;;;9.85;4.07;;;;;;;;;;2555975;23;20008;-91
2023/09/18 05:03:02;;;;;;;7.63;3.63;;;;;;;;;;2543724;23;20512;-91
2023/09/18 05:04:03;;;;;;;6.40;4.30;;;;;;;;;;2544136;23;20041;-92
2023/09/18 05:05:04;;;;;;;12.13;6.13;;;;;;;;;;2557563;23;20514;-91
2023/09/18 05:06:05;;;;;;;11.48;5.53;;;;;;;;;;2556443;23;20241;-91
2023/09/18 05:07:05;;;;;;;11.98;7.25;;;;;;;;;;2543777;23;20029;-91
2023/09/18 05:08:10;;;;;;;16.13;9.60;;;;;;;;;;2556668;23;20093;-91
2023/09/18 05:09:10;;;;;;;14.52;9.48;;;;;;;;;;2555822;23;20016;-92
2023/09/18 05:10:11;;;;;;;19.77;10.15;;;;;;;;;;2556564;23;20032;-91
2023/09/18 05:11:11;;;;;;;19.13;9.70;;;;;;;;;;2556059;23;20017;-89
2023/09/18 05:12:13;;;;;;;19.23;9.75;;;;;;;;;;2543730;23;20040;-91
2023/09/18 05:13:14;;;;;;;20.77;11.30;;;;;;;;;;2556150;23;20135;-91
2023/09/18 05:14:16;;;;;;;18.77;11.30;;;;;;;;;;2568604;23;20378;-91
2023/09/18 05:15:16;;;;;;;23.33;12.45;;;;;;;;;;2556038;23;20405;-91
2023/09/18 05:16:17;;;;;;;21.13;12.07;;;;;;;;;;2560090;23;20012;-91
2023/09/18 05:17:18;;;;;;;22.80;13.40;;;;;;;;;;2555817;23;20411;-91
2023/09/18 05:18:18;;;;;;;23.52;13.15;;;;;;;;;;2543572;23;20001;-91
2023/09/18 05:19:19;;;;;;;25.75;13.23;;;;;;;;;;2543616;23;20032;-91
2023/09/18 05:20:19;;;;;;;32.47;15.25;;;;;;;;;;2551436;23;20009;-91
2023/09/18 05:21:24;;;;;;;35.53;20.00;;;;;;;;;;2567962;23;20478;-91
2023/09/18 05:22:24;;;;;;;35.25;19.23;;;;;;;;;;2572051;23;20434;-92
2023/09/18 05:23:25;;;;;;;35.13;18.77;;;;;;;;;;2568094;23;20046;-91
2023/09/18 05:24:27;;;;;;;37.13;20.95;;;;;;;;;;2571913;23;20446;-91
2023/09/18 05:25:31;;;;;;;33.97;19.05;;;;;;;;;;2572285;23;20453;-91
2023/09/18 05:26:33;;;;;;;35.90;20.35;;;;;;;;;;2555607;23;20008;-91
2023/09/18 05:27:33;;;;;;;35.03;20.35;;;;;;;;;;2555835;23;20005;-91
2023/09/18 05:28:34;;;;;;;38.88;20.98;;;;;;;;;;2568194;23;20429;-91
2023/09/18 05:29:37;;;;;;;36.17;21.02;;;;;;;;;;2555717;23;20009;-91
2023/09/18 05:30:41;;;;;;;37.95;19.98;;;;;;;;;;2556441;23;20015;-91
2023/09/18 05:31:41;;;;;;;34.28;20.23;;;;;;;;;;2556169;23;20466;-90
2023/09/18 05:32:43;;;;;;;38.50;20.35;;;;;;;;;;2558535;23;20060;-91
2023/09/18 05:33:43;;;;;;;37.47;21.90;;;;;;;;;;2556084;23;20001;-91
2023/09/18 05:34:44;;;;;;;37.65;21.38;;;;;;;;;;2555860;23;20013;-91
2023/09/18 05:35:44;;;;;;;36.25;20.40;;;;;;;;;;2543598;23;20010;-91
2023/09/18 05:36:45;;;;;;;37.85;20.50;;;;;;;;;;2543519;23;20102;-91
2023/09/18 05:37:45;;;;;;;35.90;19.15;;;;;;;;;;2558150;23;19993;-91
2023/09/18 05:38:46;;;;;;;34.95;19.92;;;;;;;;;;2555890;23;20084;-91
2023/09/18 05:39:46;;;;;;;36.50;21.75;;;;;;;;;;2558204;23;19997;-90
2023/09/18 05:40:47;;;;;;;36.13;20.88;;;;;;;;;;2571288;23;20024;-91
2023/09/18 05:41:47;;;;;;;33.92;20.73;;;;;;;;;;2571204;23;20066;-91
2023/09/18 05:42:48;;;;;;;35.63;21.10;;;;;;;;;;2568206;23;20009;-91
2023/09/18 05:43:49;;;;;;;33.28;18.42;;;;;;;;;;2568407;23;20076;-91
2023/09/18 05:44:49;;;;;;;33.45;18.13;;;;;;;;;;2557881;23;20012;-91
2023/09/18 05:45:49;;;;;;;31.65;17.17;;;;;;;;;;2559760;23;20080;-91
2023/09/18 05:46:50;;;;;;;34.78;20.52;;;;;;;;;;2568292;23;20020;-91
2023/09/18 05:47:53;;;;;;;27.52;16.58;;;;;;;;;;2570397;23;20029;-91
2023/09/18 05:48:56;;;;;;;31.38;19.13;;;;;;;;;;2568602;23;20008;-90
2023/09/18 05:49:57;;;;;;;24.80;13.73;;;;;;;;;;2559288;23;20001;-90
2023/09/18 05:50:57;;;;;;;21.77;14.05;;;;;;;;;;2568724;23;20029;-91
2023/09/18 05:51:58;;;;;;;21.00;12.38;;;;;;;;;;2555923;23;20013;-91
2023/09/18 05:53:03;;;;;;;28.02;18.05;;;;;;;;;;2557100;23;20044;-90
2023/09/18 05:54:04;;;;;;;16.10;11.32;;;;;;;;;;2570361;23;19996;-91
2023/09/18 05:55:06;;;;;;;16.13;11.02;;;;;;;;;;2568389;23;20358;-90
2023/09/18 05:56:09;;;;;;;18.98;10.60;;;;;;;;;;2555984;23;20037;-91
2023/09/18 05:57:09;;;;;;;16.60;10.10;;;;;;;;;;2557065;23;20032;-91
2023/09/18 05:58:10;;;;;;;15.82;10.07;;;;;;;;;;2569871;23;20008;-90
2023/09/18 05:59:10;;;;;;;13.10;8.50;;;;;;;;;;2569939;23;20004;-90
2023/09/18 06:00:12;;;;;;;14.85;8.88;;;;;;;;;;2569943;23;20001;-90
2023/09/18 06:01:13;;;;;;;12.82;7.82;;;;;;;;;;2556318;23;20032;-92
2023/09/18 06:02:13;;;;;;;11.38;7.78;;;;;;;;;;2556444;23;20044;-93
2023/09/18 06:03:15;;;;;;;16.65;8.27;;;;;;;;;;2568360;23;20043;-91
2023/09/18 06:04:16;;;;;;;10.77;6.97;;;;;;;;;;2556054;23;20459;-91
2023/09/18 06:05:21;;;;;;;11.73;7.45;;;;;;;;;;2560093;23;19993;-91
2023/09/18 06:06:21;;;;;;;10.38;6.32;;;;;;;;;;2129926;23;10001413;-91